Data for 10/07/2017

Time Sea-Level Adjusted Pressure Absolute Pressure Temperature Relative Humidity Dew Point   
(mb) (inHg) (mb) (inHg) (C) (F) (%) (C) (F)
00:05 1012 29.88 842 24.86 13.6 56.6 33 -2.3 27.8
00:10 1012 29.88 842 24.86 13.6 56.5 32 -2.8 27
00:15 1012 29.88 841 24.83 13.9 57 31 -2.7 27.2
00:20 1012 29.88 841 24.83 13.9 57 31 -2.7 27.1
00:25 1012 29.88 841 24.83 14 57.2 30 -3.1 26.4
00:30 1012 29.88 841 24.83 14 57.3 30 -3.3 26
00:35 1012 29.88 841 24.83 14.1 57.4 29 -3.5 25.7
00:40 1012 29.88 841 24.83 14.1 57.4 29 -3.8 25.2
00:45 1012 29.88 841 24.83 14.1 57.3 28 -4.2 24.4
00:50 1012 29.88 841 24.83 14.1 57.5 27 -4.6 23.7
00:55 1012 29.88 841 24.83 14.3 57.7 26 -4.7 23.5
01:00 1012 29.88 841 24.83 14.3 57.8 26 -4.8 23.4
01:05 1011 29.85 841 24.83 14.3 57.7 26 -4.8 23.3
01:10 1011 29.85 841 24.83 14.1 57.4 27 -4.8 23.4
01:15 1011 29.85 841 24.83 14.1 57.4 25 -5.7 21.8
01:20 1011 29.85 841 24.83 14.3 57.8 26 -4.9 23.2
01:25 1011 29.85 841 24.83 14.1 57.3 26 -5.2 22.7
01:30 1011 29.85 841 24.83 14.1 57.4 26 -5.1 22.8
01:35 1011 29.85 841 24.83 14.1 57.3 25 -5.5 22.1
01:40 1011 29.85 841 24.83 14.2 57.5 25 -5.6 21.9
01:45 1011 29.85 841 24.83 14.3 57.8 25 -5.3 22.5
01:50 1011 29.85 841 24.83 14.2 57.6 26 -5 22.9
01:55 1011 29.85 841 24.83 14 57.3 26 -5.2 22.7
02:00 1011 29.85 840 24.81 14 57.2 26 -5.4 22.3
02:05 1011 29.85 840 24.81 13.9 57.1 25 -5.5 22.1
02:10 1011 29.85 840 24.81 13.9 57.1 26 -5.3 22.4
02:15 1011 29.85 840 24.81 13.9 57 26 -5.4 22.3
02:20 1011 29.85 840 24.81 13.9 56.9 25 -5.8 21.6
02:25 1011 29.85 840 24.81 13.9 56.9 25 -5.7 21.7
02:30 1011 29.85 840 24.81 13.9 56.9 25 -6 21.1
02:35 1011 29.85 840 24.81 14 57.1 24 -6.2 20.9
02:40 1011 29.85 840 24.81 13.9 57 25 -5.8 21.6
02:45 1011 29.85 840 24.81 13.7 56.7 24 -6.3 20.7
02:50 1011 29.85 840 24.81 13.9 57 24 -6.1 21
02:55 1011 29.85 840 24.81 13.9 57 25 -5.9 21.5
03:00 1011 29.85 840 24.81 13.9 57 25 -5.8 21.5
03:05 1010 29.83 840 24.81 13.9 57.1 25 -5.8 21.6
03:10 1010 29.83 840 24.81 14 57.2 25 -5.7 21.7
03:15 1010 29.83 840 24.81 13.9 57 25 -5.5 22
03:20 1010 29.83 840 24.81 13.8 56.8 26 -5.3 22.5
03:25 1010 29.83 840 24.81 13.6 56.4 27 -5 23
03:30 1010 29.83 839 24.78 13.4 56.1 26 -5.6 22
03:35 1010 29.83 839 24.78 13.8 56.8 25 -5.6 21.9
03:40 1010 29.83 839 24.78 13.9 57.1 25 -5.6 22
03:45 1010 29.83 839 24.78 14 57.3 25 -5.5 22.1
03:50 1010 29.83 839 24.78 13.9 57 27 -4.9 23.2
03:55 1010 29.83 839 24.78 13.7 56.6 27 -5.1 22.8
04:00 1010 29.83 839 24.78 13.6 56.5 27 -5.2 22.6
04:05 1010 29.83 839 24.78 13.6 56.5 27 -5.2 22.7
04:10 1010 29.83 839 24.78 13.5 56.3 26 -5.4 22.3
04:15 1010 29.83 839 24.78 13.7 56.6 26 -5.5 22.1
04:20 1010 29.83 839 24.78 13.8 56.8 26 -5.3 22.4
04:25 1010 29.83 839 24.78 13.8 56.8 26 -5.5 22.1
04:30 1010 29.83 839 24.78 13.8 56.8 26 -5.4 22.2
04:35 1010 29.83 839 24.78 13.7 56.6 26 -5.5 22.1
04:40 1010 29.83 839 24.78 13.7 56.6 26 -5.6 21.9
04:45 1010 29.83 839 24.78 13.7 56.7 25 -5.8 21.5
04:50 1010 29.83 839 24.78 13.8 56.9 25 -5.8 21.5
04:55 1010 29.83 839 24.78 13.8 56.8 25 -5.8 21.6
05:00 1010 29.83 839 24.78 13.8 56.8 24 -6.3 20.7
05:05 1009 29.8 839 24.78 14 57.2 24 -6.4 20.5
05:10 1009 29.8 839 24.78 14 57.2 24 -6.2 20.8
05:15 1009 29.8 839 24.78 14 57.3 24 -6.4 20.6
05:20 1009 29.8 838 24.75 14 57.1 23 -6.6 20.2
05:25 1009 29.8 838 24.75 14 57.1 23 -6.7 19.9
05:30 1009 29.8 839 24.78 14 57.2 23 -6.5 20.2
05:35 1009 29.8 839 24.78 13.8 56.9 24 -6.5 20.3
05:40 1009 29.8 839 24.78 13.8 56.9 24 -6.5 20.2
05:45 1009 29.8 839 24.78 13.8 56.9 22 -7.2 19
05:50 1009 29.8 838 24.75 14 57.2 23 -6.6 20.1
05:55 1009 29.8 838 24.75 13.9 56.9 22 -7.3 18.8
06:00 1009 29.8 838 24.75 14 57.2 22 -7.3 18.8
06:05 1009 29.8 838 24.75 13.9 57.1 23 -7 19.4
06:10 1009 29.8 838 24.75 13.7 56.7 23 -7.2 19.1
06:15 1009 29.8 838 24.75 13.7 56.6 23 -7.1 19.3
06:20 1009 29.8 838 24.75 13.6 56.5 23 -7.2 19
06:25 1009 29.8 838 24.75 13.6 56.5 23 -7.1 19.1
06:30 1009 29.8 838 24.75 13.5 56.3 23 -7.3 18.9
06:35 1009 29.8 838 24.75 13.7 56.7 22 -7.8 17.9
06:40 1009 29.8 838 24.75 13.9 57 22 -7.3 18.8
06:45 1009 29.8 838 24.75 13.7 56.7 23 -7.2 19
06:50 1009 29.8 838 24.75 13.6 56.4 23 -7.3 18.8
06:55 1009 29.8 838 24.75 13.5 56.3 23 -7.3 18.9
07:00 1009 29.8 838 24.75 13.3 56 23 -7.2 19.1
07:05 1009 29.8 838 24.75 13.2 55.8 24 -7 19.5
07:10 1009 29.8 838 24.75 12.9 55.3 24 -7 19.5
07:15 1008 29.77 838 24.75 12.8 55 25 -6.9 19.5
07:20 1008 29.77 838 24.75 12.8 55 24 -7 19.4
07:25 1008 29.77 837 24.72 12.8 55 25 -6.8 19.7
07:30 1008 29.77 838 24.75 12.6 54.7 25 -6.8 19.8
07:35 1008 29.77 837 24.72 12.6 54.7 25 -6.9 19.6
07:40 1008 29.77 837 24.72 12.7 54.8 25 -6.7 20
07:45 1008 29.77 837 24.72 12.7 54.8 26 -6.5 20.2
07:50 1008 29.77 837 24.72 12.6 54.7 26 -6.6 20.2
07:55 1008 29.77 837 24.72 12.7 54.9 25 -6.6 20.2
08:00 1008 29.77 837 24.72 12.6 54.7 26 -6.3 20.6
08:05 1008 29.77 837 24.72 12.8 55 25 -6.8 19.7
08:10 1008 29.77 837 24.72 13 55.5 26 -6.1 21
08:15 1008 29.77 837 24.72 13 55.4 26 -5.9 21.3
08:20 1008 29.77 837 24.72 13.2 55.7 26 -5.7 21.8
08:25 1008 29.77 837 24.72 13.3 55.9 27 -5.5 22.1
08:30 1008 29.77 837 24.72 13.5 56.2 27 -5.3 22.4
08:35 1008 29.77 837 24.72 13.6 56.4 27 -5.2 22.6
08:40 1008 29.77 837 24.72 14 57.3 25 -5.6 22
08:45 1008 29.77 837 24.72 14.4 57.9 25 -5.6 22
08:50 1008 29.77 837 24.72 14.7 58.4 24 -5.7 21.8
08:55 1008 29.77 837 24.72 15 59 24 -5.5 22.1
09:00 1008 29.77 837 24.72 15.2 59.4 24 -5.2 22.6
09:05 1008 29.77 837 24.72 15.3 59.6 23 -5.5 22.1
09:10 1008 29.77 837 24.72 15.5 59.8 22 -6 21.3
09:15 1008 29.77 837 24.72 15.5 60 23 -5.7 21.8
09:20 1008 29.77 837 24.72 15.6 60.1 23 -5.5 22
09:25 1008 29.77 837 24.72 15.7 60.3 22 -5.9 21.4
09:30 1008 29.77 837 24.72 15.8 60.5 22 -5.7 21.8
09:35 1008 29.77 837 24.72 15.9 60.6 22 -5.9 21.4
09:40 1008 29.77 837 24.72 16 60.8 22 -5.7 21.7
09:45 1008 29.77 837 24.72 16.1 60.9 22 -5.7 21.7
09:50 1008 29.77 837 24.72 16.2 61.2 22 -5.7 21.8
09:55 1008 29.77 837 24.72 16.2 61.1 21 -5.8 21.5
10:00 1008 29.77 837 24.72 16.2 61.1 21 -6 21.2
10:05 1008 29.77 837 24.72 16.3 61.3 21 -6.3 20.6
10:10 1008 29.77 837 24.72 16.3 61.3 21 -6 21.2
10:15 1007 29.74 837 24.72 16.3 61.4 21 -6.3 20.7
10:20 1007 29.74 837 24.72 16.3 61.3 20 -6.4 20.5
10:25 1007 29.74 837 24.72 16.4 61.5 21 -5.9 21.3
10:30 1007 29.74 837 24.72 16.5 61.7 21 -5.9 21.4
10:35 1007 29.74 837 24.72 16.6 61.8 21 -5.9 21.4
10:40 1007 29.74 837 24.72 16.9 62.4 21 -5.8 21.6
10:45 1008 29.77 837 24.72 16.6 61.9 20 -6 21.1
10:50 1008 29.77 837 24.72 16.5 61.6 20 -6.2 20.9
10:55 1007 29.74 837 24.72 16.6 61.9 21 -5.9 21.4
11:00 1007 29.74 837 24.72 16.7 62 21 -5.9 21.3
11:05 1008 29.77 837 24.72 16.4 61.6 21 -6 21.3
11:10 1008 29.77 837 24.72 16.3 61.3 22 -5.5 22.1
11:15 1008 29.77 837 24.72 16.5 61.7 21 -5.8 21.6
11:20 1008 29.77 837 24.72 16.5 61.7 21 -6 21.2
11:25 1008 29.77 837 24.72 16.5 61.8 22 -5.4 22.3
11:30 1007 29.74 837 24.72 16.4 61.6 22 -5.5 22.1
11:35 1007 29.74 837 24.72 16.3 61.3 21 -5.8 21.5
11:40 1007 29.74 836 24.69 16.4 61.4 22 -5.4 22.3
11:45 1007 29.74 836 24.69 16.6 61.9 21 -5.6 22
11:50 1007 29.74 836 24.69 16.4 61.5 22 -5.5 22.2
11:55 1007 29.74 836 24.69 16.9 62.4 22 -5.1 22.8
12:00 1007 29.74 836 24.69 17 62.5 21 -5.6 21.9
12:05 1007 29.74 836 24.69 17.2 63 21 -5.5 22.1
12:10 1007 29.74 836 24.69 17.2 62.9 21 -5.2 22.6
12:15 1007 29.74 836 24.69 17.7 63.8 21 -5 23.1
12:20 1007 29.74 836 24.69 17.5 63.4 20 -5.6 22
12:25 1007 29.74 836 24.69 17 62.6 21 -5.2 22.6
12:30 1007 29.74 836 24.69 16.8 62.2 22 -5.2 22.7
12:35 1007 29.74 836 24.69 16.8 62.3 21 -5.6 22
12:40 1007 29.74 836 24.69 17.2 63 20 -5.6 21.8
12:45 1007 29.74 836 24.69 16.8 62.2 22 -5.1 22.8
12:50 1007 29.74 836 24.69 16.7 62.1 21 -5.9 21.4
12:55 1007 29.74 836 24.69 17.2 63 21 -5.1 22.9
13:00 1007 29.74 836 24.69 17.1 62.8 21 -5.3 22.5
13:05 1007 29.74 836 24.69 17.4 63.3 21 -5.1 22.8
13:10 1007 29.74 836 24.69 17.3 63.1 22 -4.8 23.3
13:15 1007 29.74 836 24.69 17 62.6 21 -5.4 22.3
13:20 1007 29.74 836 24.69 17.7 63.9 20 -5.7 21.8
13:25 1007 29.74 836 24.69 18.2 64.7 22 -3.7 25.3
13:30 1007 29.74 836 24.69 16.9 62.4 24 -3.8 25.2
13:35 1007 29.74 836 24.69 16.4 61.6 24 -4 24.8
13:40 1007 29.74 836 24.69 16.8 62.2 24 -4 24.7
13:45 1007 29.74 836 24.69 17.1 62.8 23 -4 24.8
13:50 1007 29.74 836 24.69 17.2 63 23 -4.2 24.4
13:55 1007 29.74 836 24.69 16.9 62.5 23 -4.1 24.6
14:00 1007 29.74 836 24.69 16.3 61.4 24 -4.3 24.2
14:05 1007 29.74 836 24.69 15.8 60.5 25 -4.2 24.5
14:10 1007 29.74 836 24.69 15.7 60.2 25 -4.2 24.4
14:15 1007 29.74 836 24.69 15.5 59.8 25 -4.6 23.7
14:20 1007 29.74 836 24.69 15.5 59.8 24 -4.7 23.5
14:25 1007 29.74 836 24.69 15.7 60.2 25 -4.3 24.2
14:30 1007 29.74 836 24.69 15.7 60.3 24 -4.7 23.6
14:35 1007 29.74 836 24.69 15.4 59.7 25 -4.6 23.7
14:40 1007 29.74 836 24.69 15.3 59.5 25 -4.8 23.3
14:45 1007 29.74 836 24.69 15.3 59.5 25 -4.7 23.6
14:50 1007 29.74 836 24.69 15 59.1 25 -4.7 23.5
14:55 1007 29.74 836 24.69 14.9 58.9 25 -5 23
15:00 1007 29.74 836 24.69 14.8 58.7 25 -4.7 23.5
15:05 1007 29.74 836 24.69 14.8 58.7 25 -4.7 23.5
15:10 1007 29.74 836 24.69 14.7 58.5 26 -4.6 23.7
15:15 1007 29.74 836 24.69 14.7 58.4 26 -4.8 23.4
15:20 1007 29.74 836 24.69 14.5 58 26 -4.8 23.4
15:25 1007 29.74 836 24.69 14.4 58 26 -4.5 23.8
15:30 1007 29.74 836 24.69 14.3 57.7 27 -4.4 24
15:35 1007 29.74 836 24.69 14.2 57.6 27 -4.3 24.3
15:40 1007 29.74 836 24.69 14.2 57.5 27 -4.3 24.3
15:45 1007 29.74 836 24.69 14.1 57.5 27 -4.4 24.1
15:50 1007 29.74 836 24.69 14.1 57.3 27 -4.4 24
15:55 1007 29.74 836 24.69 14.1 57.3 27 -4.6 23.8
16:00 1007 29.74 836 24.69 14 57.3 27 -4.7 23.6
16:05 1007 29.74 836 24.69 14.1 57.4 26 -4.8 23.3
16:10 1007 29.74 836 24.69 14.1 57.4 27 -4.7 23.6
16:15 1007 29.74 836 24.69 14.2 57.6 27 -4.4 24
16:20 1007 29.74 836 24.69 14.2 57.5 26 -4.7 23.5
16:25 1007 29.74 836 24.69 14.1 57.3 26 -5 23.1
16:30 1007 29.74 837 24.72 14 57.2 26 -4.9 23.2
16:35 1007 29.74 837 24.72 14 57.1 27 -4.7 23.6
16:40 1007 29.74 837 24.72 14 57.1 27 -4.8 23.3
16:45 1007 29.74 837 24.72 13.9 57 27 -4.9 23.3
16:50 1008 29.77 837 24.72 13.9 57 27 -4.9 23.2
16:55 1008 29.77 837 24.72 13.9 56.9 27 -4.8 23.3
17:00 1008 29.77 837 24.72 13.8 56.9 27 -4.7 23.6
17:05 1008 29.77 837 24.72 13.8 56.8 28 -4.6 23.8
17:10 1008 29.77 837 24.72 13.7 56.7 28 -4.6 23.7
17:15 1008 29.77 837 24.72 13.6 56.5 28 -4.5 24
17:20 1008 29.77 837 24.72 13.5 56.3 29 -4.3 24.2
17:25 1008 29.77 837 24.72 13.3 56 29 -4.1 24.6
17:30 1008 29.77 837 24.72 13.2 55.8 30 -3.9 24.9
17:35 1008 29.77 837 24.72 13 55.5 31 -3.8 25.1
17:40 1008 29.77 837 24.72 12.7 54.8 31 -3.9 25
17:45 1008 29.77 837 24.72 12.4 54.3 33 -3.4 25.9
17:50 1008 29.77 837 24.72 11.9 53.4 35 -2.9 26.8
17:55 1008 29.77 838 24.75 11.6 52.9 36 -2.9 26.8
18:00 1009 29.8 838 24.75 11.3 52.4 38 -2.4 27.6
18:05 1009 29.8 838 24.75 10.9 51.7 43 -1 30.2
18:10 1009 29.8 838 24.75 10.2 50.3 45 -1.1 30
18:15 1009 29.8 838 24.75 9.9 49.8 46 -1.2 29.8
18:20 1009 29.8 839 24.78 9.7 49.4 48 -0.7 30.7
18:25 1009 29.8 839 24.78 9.4 48.8 48 -1.1 30
18:30 1010 29.83 839 24.78 9.3 48.7 47 -1.3 29.7
18:35 1010 29.83 839 24.78 9.2 48.6 48 -1.3 29.7
18:40 1010 29.83 839 24.78 9.2 48.6 47 -1.4 29.5
18:45 1010 29.83 839 24.78 9.2 48.5 47 -1.5 29.3
18:50 1010 29.83 839 24.78 9.1 48.3 48 -1.3 29.6
18:55 1010 29.83 839 24.78 9 48.2 47 -1.7 28.9
19:00 1010 29.83 839 24.78 9 48.3 47 -1.7 29
19:05 1010 29.83 839 24.78 9 48.1 47 -1.8 28.8
19:10 1010 29.83 839 24.78 9 48.2 46 -1.9 28.6
19:15 1010 29.83 839 24.78 9 48.2 46 -1.9 28.7
19:20 1010 29.83 839 24.78 9 48.2 46 -2.1 28.3
19:25 1010 29.83 840 24.81 9.2 48.5 45 -2.1 28.3
19:30 1011 29.85 840 24.81 9 48.3 46 -1.9 28.6
19:35 1011 29.85 840 24.81 8.9 48 45 -2.3 27.9
19:40 1010 29.83 840 24.81 8.8 47.8 45 -2.6 27.4
19:45 1011 29.85 840 24.81 8.7 47.7 45 -2.6 27.3
19:50 1011 29.85 840 24.81 8.7 47.7 44 -2.7 27.1
19:55 1011 29.85 840 24.81 8.6 47.5 44 -2.8 27
20:00 1011 29.85 840 24.81 8.6 47.4 42 -3.7 25.4
20:05 1011 29.85 840 24.81 8.5 47.3 43 -3.4 25.8
20:10 1011 29.85 840 24.81 8.4 47 45 -2.9 26.8
20:15 1011 29.85 840 24.81 8.2 46.8 44 -3.2 26.2
20:20 1011 29.85 840 24.81 8.2 46.8 45 -3 26.6
20:25 1011 29.85 840 24.81 8.1 46.5 46 -2.9 26.8
20:30 1011 29.85 840 24.81 8 46.4 46 -2.9 26.7
20:35 1011 29.85 840 24.81 8 46.3 46 -2.8 26.9
20:40 1011 29.85 841 24.83 7.9 46.1 47 -2.8 26.9
20:45 1012 29.88 841 24.83 7.7 45.9 48 -2.6 27.4
20:50 1012 29.88 841 24.83 7.6 45.6 49 -2.5 27.6
20:55 1012 29.88 841 24.83 7.5 45.5 49 -2.5 27.5
21:00 1011 29.85 841 24.83 7.4 45.3 49 -2.5 27.5
21:05 1011 29.85 841 24.83 7.3 45.1 49 -2.7 27.2
21:10 1012 29.88 841 24.83 7.3 45.1 49 -2.7 27.2
21:15 1012 29.88 841 24.83 7.3 45.1 50 -2.5 27.5
21:20 1012 29.88 841 24.83 7.2 44.9 50 -2.5 27.5
21:25 1012 29.88 841 24.83 7 44.7 52 -2.1 28.2
21:30 1012 29.88 841 24.83 6.9 44.4 53 -2.1 28.3
21:35 1012 29.88 841 24.83 6.8 44.2 54 -2 28.5
21:40 1012 29.88 841 24.83 6.6 43.9 55 -1.6 29
21:45 1012 29.88 841 24.83 6.5 43.6 54 -2 28.3
21:50 1012 29.88 841 24.83 6.2 43.1 57 -1.7 29
21:55 1012 29.88 841 24.83 6.1 43 54 -2.4 27.6
22:00 1012 29.88 841 24.83 6 42.8 60 -1.1 30
22:05 1012 29.88 841 24.83 5.6 42.2 63 -0.9 30.4
22:10 1012 29.88 841 24.83 5.4 41.7 63 -1.1 30.1
22:15 1012 29.88 841 24.83 5.5 41.8 64 -0.8 30.6
22:20 1012 29.88 841 24.83 5.1 41.2 66 -0.6 30.9
22:25 1012 29.88 841 24.83 4.9 40.9 67 -0.8 30.6
22:30 1012 29.88 841 24.83 4.9 40.9 67 -0.7 30.7
22:35 1012 29.88 841 24.83 4.9 40.9 68 -0.5 31.1
22:40 1012 29.88 841 24.83 4.7 40.4 73 0.2 32.4
22:45 1012 29.88 842 24.86 4.3 39.7 76 0.5 32.8
22:50 1012 29.88 842 24.86 3.8 38.8 77 0.2 32.4
22:55 1012 29.88 842 24.86 3.7 38.6 78 0.1 32.2
23:00 1012 29.88 841 24.83 3.5 38.3 79 0.2 32.3
23:05 1012 29.88 841 24.83 3.4 38.1 79 0.2 32.3
23:10 1012 29.88 841 24.83 3.4 38 80 0.2 32.3
23:15 1012 29.88 841 24.83 3.3 38 80 0.1 32.2
23:20 1012 29.88 841 24.83 3.2 37.8 81 0.3 32.6
23:25 1012 29.88 842 24.86 3.1 37.6 82 0.3 32.5
23:30 1012 29.88 842 24.86 2.9 37.2 82 0.2 32.4
23:35 1013 29.91 842 24.86 2.8 37 83 0.2 32.3
23:40 1013 29.91 842 24.86 2.8 37.1 82 0.1 32.2
23:45 1013 29.91 842 24.86 2.9 37.3 82 0.2 32.3
23:50 1013 29.91 842 24.86 3 37.3 82 0.2 32.4
23:55 1013 29.91 842 24.86 3 37.4 81 0 32
24:00 1013 29.91 842 24.86 3.1 37.7 79 -0.1 31.9